Terminal Aerodrome Forecast
Issued by NWS Chicago, IL

Home | Current Version | Previous Version | Text Only | Print | Product List | Glossary On
Versions: 1 2 3 4 5 6 7 8 9 10 11 12 13 14 15 16 17 18 19 20 21 22 23 24 25 26 27 28 29 30 31 32 33 34 35 36 37 38 39 40
000
FTUS43 KLOT 200500
TAFRFD
TAF
KRFD 200524Z 2006/2106 VRB02KT P6SM FEW070
     FM200800 00000KT 3SM BR FEW050 SCT250
     FM201400 29009KT P6SM SCT040
     FM210300 20008KT P6SM VCSH SCT035 BKN050 PROB30 2104/2106 TSRA
      BKN035CB=

USA.gov is the U.S. government's official web portal to all federal, state and local government web resources and services.